Ashkum, Illinois
Current Conditions -  °F | °C
As of 12:55 PM on Friday 21 Nov 2014 (Local Time) from KIKK Reporting Station
Clear Clear  
Wind Chill: 25°   Ceiling: Unl
Heat Index: 33°   Visibility: 10mi
Dew Point:   Wind: 9mph
Humidity: 32%   Direction: 160°SSE
Pressure: 30.41"   Gusts: NA
Location:  40.88°N, 87.96°W
Report Text: KIKK 211855Z AUTO 16008KT 10SM CLR 01/M15 A3041 RMK AO2 T00061146
Loading
Personal Weather Stations






























Interactive Weather Map New forecast layout! Learn more

10-Day Weather Forecast

Advertisements
Track Severe Weather on mobile